createdAt,value
2019-05-13T00:00:49.551Z,2.77
2019-05-13T00:02:01.536Z,2.64
2019-05-13T00:03:13.572Z,2.62
2019-05-13T00:04:24.162Z,2.55
2019-05-13T00:05:36.311Z,2.61
2019-05-13T00:07:00.254Z,2.55
2019-05-13T00:08:13.914Z,2.54
2019-05-13T00:09:29.354Z,2.51
2019-05-13T00:10:43.596Z,2.52
2019-05-13T00:11:54.095Z,2.54
2019-05-13T00:13:06.654Z,2.44
2019-05-13T00:14:18.307Z,2.41
2019-05-13T00:15:29.224Z,2.41
2019-05-13T00:16:44.658Z,2.34
2019-05-13T00:17:56.849Z,2.36
2019-05-13T00:19:09.109Z,2.32
2019-05-13T00:20:19.569Z,2.33
2019-05-13T00:21:33.823Z,2.19
2019-05-13T00:22:44.595Z,2.23
2019-05-13T00:23:55.938Z,2.16
2019-05-13T00:25:06.575Z,2.22
2019-05-13T00:26:18.832Z,2.22
2019-05-13T00:27:29.703Z,2.26
2019-05-13T00:28:41.202Z,2.14
2019-05-13T00:29:53.388Z,2.12
2019-05-13T00:31:05.776Z,2.07
2019-05-13T00:32:18.245Z,2.08
2019-05-13T00:33:29.316Z,2
2019-05-13T00:34:44.328Z,2
2019-05-13T00:35:55.928Z,2.03
2019-05-13T00:37:16.883Z,2.01
2019-05-13T00:38:29.307Z,2
2019-05-13T00:39:41.243Z,1.98
2019-05-13T00:40:53.903Z,1.97
2019-05-13T00:42:06.538Z,1.88
2019-05-13T00:43:19.006Z,1.95
2019-05-13T00:44:29.813Z,1.95
2019-05-13T00:45:41.469Z,1.89
2019-05-13T00:46:53.690Z,1.93
2019-05-13T00:48:04.451Z,1.88
2019-05-13T00:49:15.883Z,1.88
2019-05-13T00:50:26.537Z,1.93
2019-05-13T00:51:38.818Z,1.88
2019-05-13T00:52:49.904Z,2.01
2019-05-13T00:54:01.053Z,2.01
2019-05-13T00:55:17.180Z,2.03
2019-05-13T00:56:29.071Z,2.15
2019-05-13T00:57:39.796Z,2.12
2019-05-13T00:58:51.428Z,2.12
2019-05-13T01:00:03.474Z,2.12
2019-05-13T01:01:13.992Z,2.15
2019-05-13T01:02:24.359Z,2.08
2019-05-13T01:03:36.296Z,2.16
2019-05-13T01:04:46.697Z,2.04
2019-05-13T01:05:58.793Z,2.12
2019-05-13T01:07:28.454Z,2.16
2019-05-13T01:08:39.381Z,2.04
2019-05-13T01:09:53.434Z,2.07
2019-05-13T01:11:04.218Z,2.08
2019-05-13T01:12:15.805Z,2.14
2019-05-13T01:13:26.267Z,2.16
2019-05-13T01:14:38.332Z,2.16
2019-05-13T01:15:49.219Z,2.15
2019-05-13T01:16:59.712Z,2.21
2019-05-13T01:18:14.024Z,2.21
2019-05-13T01:19:26.166Z,2.26
2019-05-13T01:20:37.042Z,2.23
2019-05-13T01:21:49.027Z,2.25
2019-05-13T01:23:03.545Z,2.28
2019-05-13T01:24:16.777Z,2.23
2019-05-13T01:25:29.241Z,2.3
2019-05-13T01:26:43.634Z,2.25
2019-05-13T01:27:56.090Z,2.22
2019-05-13T01:29:06.710Z,2.21
2019-05-13T01:30:18.757Z,2.15
2019-05-13T01:31:29.080Z,2.26
2019-05-13T01:32:39.605Z,2.15
2019-05-13T01:33:53.743Z,2.23
2019-05-13T01:35:04.547Z,2.15
2019-05-13T01:36:15.879Z,2.19
2019-05-13T01:37:45.354Z,2.21
2019-05-13T01:38:56.549Z,2.19
2019-05-13T01:40:07.517Z,2.3
2019-05-13T01:41:18.641Z,2.33
2019-05-13T01:42:29.337Z,2.37
2019-05-13T01:43:41.039Z,2.43
2019-05-13T01:44:53.384Z,2.41
2019-05-13T01:46:04.399Z,2.39
2019-05-13T01:47:15.909Z,2.36
2019-05-13T01:48:26.556Z,2.43
2019-05-13T01:49:38.719Z,2.4
2019-05-13T01:50:49.525Z,2.41
2019-05-13T01:52:03.449Z,2.43
2019-05-13T01:53:14.417Z,2.34
2019-05-13T01:54:27.001Z,2.26
2019-05-13T01:55:39.261Z,2.26
2019-05-13T01:56:53.466Z,2.34
2019-05-13T01:58:06.461Z,2.36
2019-05-13T01:59:17.658Z,2.34
2019-05-13T02:00:29.219Z,2.26
2019-05-13T02:01:40.784Z,2.28
2019-05-13T02:02:54.312Z,2.22
2019-05-13T02:04:06.566Z,2.3
2019-05-13T02:05:19.282Z,2.25
2019-05-13T02:06:29.476Z,2.3
2019-05-13T02:07:54.381Z,2.32
2019-05-13T02:09:09.719Z,2.32
2019-05-13T02:10:21.839Z,2.37
2019-05-13T02:11:34.100Z,2.46
2019-05-13T02:12:46.894Z,2.47
2019-05-13T02:13:58.986Z,2.55
2019-05-13T02:15:10.945Z,2.51
2019-05-13T02:16:24.236Z,2.52
2019-05-13T02:17:36.199Z,2.47
2019-05-13T02:18:46.907Z,2.5
2019-05-13T02:19:58.961Z,2.51
2019-05-13T02:21:13.532Z,2.55
2019-05-13T02:22:24.721Z,2.55
2019-05-13T02:23:36.492Z,2.54
2019-05-13T02:24:47.195Z,2.55
2019-05-13T02:25:59.445Z,2.55
2019-05-13T02:27:13.964Z,2.61
2019-05-13T02:28:26.921Z,2.59
2019-05-13T02:29:39.365Z,2.61
2019-05-13T02:30:51.279Z,2.58
2019-05-13T02:32:07.480Z,2.61
2019-05-13T02:33:23.047Z,2.59
2019-05-13T02:34:34.788Z,2.68
2019-05-13T02:35:52.659Z,2.72
2019-05-13T02:37:05.775Z,2.79
2019-05-13T02:38:35.284Z,2.8
2019-05-13T02:39:48.007Z,2.85
2019-05-13T02:41:02.772Z,2.8
2019-05-13T02:42:15.746Z,2.77
2019-05-13T02:43:29.125Z,2.88
2019-05-13T02:44:43.675Z,2.73
2019-05-13T02:45:55.847Z,2.75
2019-05-13T02:47:11.966Z,2.72
2019-05-13T02:48:26.061Z,2.7
2019-05-13T02:49:38.448Z,2.75
2019-05-13T02:50:52.841Z,2.79
2019-05-13T02:52:05.444Z,2.76
2019-05-13T02:53:18.402Z,2.85
2019-05-13T02:54:34.012Z,2.88
2019-05-13T02:55:48.662Z,2.87
2019-05-13T02:57:03.251Z,2.91
2019-05-13T02:58:17.214Z,2.87
2019-05-13T02:59:33.518Z,3
2019-05-13T03:00:46.700Z,3
2019-05-13T03:02:03.584Z,2.95
2019-05-13T03:03:17.738Z,2.98
2019-05-13T03:04:32.479Z,2.98
2019-05-13T03:05:45.353Z,2.95
2019-05-13T03:06:57.875Z,2.97
2019-05-13T03:08:12.628Z,2.97
2019-05-13T03:09:57.643Z,2.87
2019-05-13T03:11:14.940Z,2.88
2019-05-13T03:12:28.113Z,2.93
2019-05-13T03:13:42.476Z,2.91
2019-05-13T03:14:55.841Z,2.88
2019-05-13T03:16:08.262Z,3
2019-05-13T03:17:24.683Z,2.91
2019-05-13T03:18:38.481Z,2.94
2019-05-13T03:19:52.923Z,2.98
2019-05-13T03:21:06.033Z,3.03
2019-05-13T03:22:18.546Z,3
2019-05-13T03:23:32.681Z,3.08
2019-05-13T03:24:45.499Z,3.06
2019-05-13T03:25:58.774Z,3.01
2019-05-13T03:27:12.659Z,3.01
2019-05-13T03:28:33.468Z,3.01
2019-05-13T03:29:45.689Z,3.01
2019-05-13T03:31:08.783Z,3.01
2019-05-13T03:33:01.042Z,3
2019-05-13T03:34:37.964Z,3.06
2019-05-13T03:35:58.302Z,3.01
2019-05-13T03:37:28.521Z,3.03
2019-05-13T03:39:12.076Z,3.03
2019-05-13T03:40:28.295Z,3.08
2019-05-13T03:41:42.243Z,3.03
2019-05-13T03:42:55.965Z,3.09
2019-05-13T03:44:07.667Z,3.09
2019-05-13T03:45:24.376Z,3
2019-05-13T03:46:38.252Z,3.08
2019-05-13T03:47:52.685Z,3.03
2019-05-13T03:49:04.907Z,3.03
2019-05-13T03:50:18.751Z,3.01
2019-05-13T03:51:32.596Z,3.11
2019-05-13T03:52:45.686Z,3.08
2019-05-13T03:53:58.507Z,2.95
2019-05-13T03:55:12.977Z,2.98
2019-05-13T03:56:26.196Z,2.95
2019-05-13T03:57:38.816Z,3
2019-05-13T03:58:50.587Z,2.93
2019-05-13T04:00:06.065Z,3.08
2019-05-13T04:01:18.644Z,2.98
2019-05-13T04:02:32.504Z,2.97
2019-05-13T04:03:46.083Z,2.98
2019-05-13T04:05:03.896Z,2.95
2019-05-13T04:06:18.084Z,3.05
2019-05-13T04:07:32.580Z,3.01
2019-05-13T04:08:45.770Z,2.98
2019-05-13T04:09:59.063Z,3.05
2019-05-13T04:11:14.887Z,2.98
2019-05-13T04:12:35.690Z,2.98
2019-05-13T04:13:48.008Z,2.94
2019-05-13T04:15:03.481Z,2.98
2019-05-13T04:16:15.495Z,2.97
2019-05-13T04:17:31.972Z,2.91
2019-05-13T04:18:44.772Z,3.09
2019-05-13T04:19:57.774Z,3.05
2019-05-13T04:21:12.956Z,3.01
2019-05-13T04:22:25.555Z,3.06
2019-05-13T04:23:38.554Z,3.08
2019-05-13T04:24:52.968Z,3.15
2019-05-13T04:26:05.616Z,3.18
2019-05-13T04:27:18.155Z,3.18
2019-05-13T04:28:32.938Z,3.24
2019-05-13T04:29:45.740Z,3.24
2019-05-13T04:30:58.033Z,3.48
2019-05-13T04:32:12.529Z,3.36
2019-05-13T04:33:25.593Z,3.31
2019-05-13T04:34:41.519Z,3.36
2019-05-13T04:35:55.309Z,3.33
2019-05-13T04:37:07.901Z,3.4
2019-05-13T04:38:22.599Z,3.46
2019-05-13T04:39:56.227Z,3.55
2019-05-13T04:41:11.107Z,3.61
2019-05-13T04:42:25.484Z,3.53
2019-05-13T04:43:42.905Z,3.7
2019-05-13T04:44:55.801Z,3.78
2019-05-13T04:46:08.357Z,3.77
2019-05-13T04:47:25.258Z,3.74
2019-05-13T04:48:44.029Z,3.76
2019-05-13T04:49:58.093Z,3.76
2019-05-13T04:51:13.538Z,3.91
2019-05-13T04:52:26.934Z,3.84
2019-05-13T04:53:42.163Z,3.76
2019-05-13T04:54:55.127Z,3.77
2019-05-13T04:56:08.614Z,3.78
2019-05-13T04:57:22.629Z,3.81
2019-05-13T04:58:34.741Z,3.71
2019-05-13T04:59:51.562Z,3.76
2019-05-13T05:01:16.647Z,3.82
2019-05-13T05:02:55.105Z,3.77
2019-05-13T05:04:30.329Z,3.76
2019-05-13T05:05:44.559Z,3.68
2019-05-13T05:06:57.863Z,3.73
2019-05-13T05:08:11.953Z,3.71
2019-05-13T05:09:24.846Z,3.67
2019-05-13T05:10:49.520Z,3.82
2019-05-13T05:12:04.445Z,3.77
2019-05-13T05:13:15.288Z,3.74
2019-05-13T05:14:27.387Z,3.82
2019-05-13T05:15:41.723Z,3.94
2019-05-13T05:16:54.619Z,3.88
2019-05-13T05:18:07.650Z,3.91
2019-05-13T05:19:19.286Z,4
2019-05-13T05:20:32.148Z,4.04
2019-05-13T05:21:44.187Z,4.12
2019-05-13T05:23:01.810Z,4.16
2019-05-13T05:24:13.789Z,4.14
2019-05-13T05:25:24.549Z,4.09
2019-05-13T05:26:37.564Z,4.12
2019-05-13T05:27:51.399Z,4.04
2019-05-13T05:29:04.513Z,4.09
2019-05-13T05:30:16.530Z,4.06
2019-05-13T05:31:27.967Z,4.02
2019-05-13T05:32:42.153Z,3.95
2019-05-13T05:33:54.084Z,3.89
2019-05-13T05:35:06.074Z,3.89
2019-05-13T05:36:17.114Z,4.04
2019-05-13T05:37:31.204Z,4.07
2019-05-13T05:38:43.232Z,4.02
2019-05-13T05:39:53.685Z,4.1
2019-05-13T05:41:04.164Z,4.22
2019-05-13T05:42:16.019Z,4.3
2019-05-13T05:43:27.230Z,4.3
2019-05-13T05:44:39.103Z,4.38
2019-05-13T05:45:51.228Z,4.4
2019-05-13T05:47:02.519Z,4.28
2019-05-13T05:48:14.313Z,4.32
2019-05-13T05:49:26.216Z,4.39
2019-05-13T05:50:37.308Z,4.46
2019-05-13T05:51:51.456Z,4.56
2019-05-13T05:53:01.934Z,4.6
2019-05-13T05:54:16.710Z,4.63
2019-05-13T05:55:27.185Z,4.53
2019-05-13T05:56:41.277Z,4.46
2019-05-13T05:57:52.209Z,4.63
2019-05-13T05:59:05.253Z,4.58
2019-05-13T06:00:17.645Z,4.63
2019-05-13T06:01:29.651Z,4.61
2019-05-13T06:02:44.984Z,4.71
2019-05-13T06:03:58.346Z,4.78
2019-05-13T06:05:09.100Z,4.83
2019-05-13T06:06:22.689Z,4.83
2019-05-13T06:07:34.815Z,4.84
2019-05-13T06:08:46.199Z,4.86
2019-05-13T06:09:56.908Z,4.97
2019-05-13T06:11:07.569Z,4.97
2019-05-13T06:12:21.356Z,5.02
2019-05-13T06:13:33.972Z,4.98
2019-05-13T06:14:44.767Z,5.04
2019-05-13T06:15:57.630Z,5.02
2019-05-13T06:17:11.488Z,5.13
2019-05-13T06:18:22.281Z,5.07
2019-05-13T06:19:34.134Z,5.18
2019-05-13T06:20:44.364Z,5.16
2019-05-13T06:21:56.536Z,5.22
2019-05-13T06:23:07.794Z,5.23
2019-05-13T06:24:19.159Z,5.22
2019-05-13T06:25:38.600Z,5.2
2019-05-13T06:26:52.002Z,5.29
2019-05-13T06:28:04.175Z,5.29
2019-05-13T06:29:16.385Z,5.34
2019-05-13T06:30:27.503Z,5.31
2019-05-13T06:31:41.885Z,5.34
2019-05-13T06:32:52.548Z,5.38
2019-05-13T06:34:04.507Z,5.46
2019-05-13T06:35:16.418Z,5.49
2019-05-13T06:36:27.115Z,5.46
2019-05-13T06:37:41.367Z,5.47
2019-05-13T06:38:53.744Z,5.55
2019-05-13T06:40:04.651Z,5.52
2019-05-13T06:41:19.219Z,5.54
2019-05-13T06:42:32.182Z,5.62
2019-05-13T06:43:44.047Z,5.77
2019-05-13T06:44:56.088Z,5.74
2019-05-13T06:46:07.163Z,5.83
2019-05-13T06:47:17.669Z,5.81
2019-05-13T06:48:29.629Z,5.84
2019-05-13T06:49:42.315Z,5.88
2019-05-13T06:50:54.595Z,5.94
2019-05-13T06:52:06.689Z,5.95
2019-05-13T06:53:17.632Z,6.06
2019-05-13T06:54:29.149Z,5.98
2019-05-13T06:55:41.738Z,5.99
2019-05-13T06:56:54.244Z,5.98
2019-05-13T06:58:06.865Z,5.95
2019-05-13T06:59:19.089Z,5.97
2019-05-13T07:00:33.955Z,5.98
2019-05-13T07:01:44.926Z,5.98
2019-05-13T07:02:56.853Z,6.06
2019-05-13T07:04:11.601Z,6.1
2019-05-13T07:05:22.634Z,6.07
2019-05-13T07:06:34.811Z,6.13
2019-05-13T07:07:47.337Z,6.1
2019-05-13T07:08:58.457Z,5.98
2019-05-13T07:10:08.909Z,6.06
2019-05-13T07:11:27.452Z,6.1
2019-05-13T07:12:41.140Z,6.16
2019-05-13T07:13:51.597Z,6.12
2019-05-13T07:15:02.406Z,6.12
2019-05-13T07:16:14.363Z,6.13
2019-05-13T07:17:27.020Z,6.29
2019-05-13T07:18:41.494Z,6.13
2019-05-13T07:19:54.103Z,6.22
2019-05-13T07:21:06.780Z,6.26
2019-05-13T07:22:17.812Z,6.38
2019-05-13T07:23:31.783Z,6.43
2019-05-13T07:24:43.978Z,6.46
2019-05-13T07:25:55.015Z,6.59
2019-05-13T07:27:07.246Z,6.56
2019-05-13T07:28:21.870Z,6.68
2019-05-13T07:29:34.819Z,6.8
2019-05-13T07:30:47.144Z,6.87
2019-05-13T07:32:01.557Z,6.82
2019-05-13T07:33:12.475Z,6.82
2019-05-13T07:34:27.223Z,6.95
2019-05-13T07:35:47.399Z,7.01
2019-05-13T07:37:08.351Z,7.03
2019-05-13T07:38:19.011Z,7.08
2019-05-13T07:39:32.281Z,7.18
2019-05-13T07:40:44.296Z,7.22
2019-05-13T07:41:54.629Z,7.21
2019-05-13T07:43:11.666Z,7.13
2019-05-13T07:44:24.759Z,7.14
2019-05-13T07:45:37.525Z,7.21
2019-05-13T07:46:52.232Z,7.21
2019-05-13T07:48:18.321Z,7.14
2019-05-13T07:49:37.274Z,7.13
2019-05-13T07:51:07.056Z,7.21
2019-05-13T07:52:19.402Z,7.22
2019-05-13T07:53:32.183Z,7.11
2019-05-13T07:54:44.476Z,7.18
2019-05-13T07:55:57.284Z,7.21
2019-05-13T07:57:12.032Z,7.25
2019-05-13T07:58:25.242Z,7.28
2019-05-13T07:59:44.284Z,7.28
2019-05-13T08:00:54.602Z,7.39
2019-05-13T08:02:07.274Z,7.41
2019-05-13T08:03:21.367Z,7.41
2019-05-13T08:04:33.346Z,7.39
2019-05-13T08:05:44.366Z,7.4
2019-05-13T08:06:57.364Z,7.47
2019-05-13T08:08:11.631Z,7.59
2019-05-13T08:09:24.078Z,7.64
2019-05-13T08:10:37.003Z,7.59
2019-05-13T08:12:14.225Z,7.59
2019-05-13T08:13:27.454Z,7.62
2019-05-13T08:14:43.034Z,7.7
2019-05-13T08:15:56.864Z,7.84
2019-05-13T08:17:11.475Z,7.91
2019-05-13T08:18:22.161Z,7.96
2019-05-13T08:19:34.855Z,7.95
2019-05-13T08:20:47.169Z,7.99
2019-05-13T08:22:02.057Z,8.05
2019-05-13T08:23:14.395Z,8.13
2019-05-13T08:24:27.571Z,8.2
2019-05-13T08:25:39.071Z,8.23
2019-05-13T08:26:55.736Z,8.26
2019-05-13T08:28:07.525Z,8.42
2019-05-13T08:29:21.595Z,8.45
2019-05-13T08:30:34.197Z,8.46
2019-05-13T08:31:46.114Z,8.53
2019-05-13T08:32:57.213Z,8.6
2019-05-13T08:34:11.721Z,8.68
2019-05-13T08:35:22.551Z,8.68
2019-05-13T08:36:35.054Z,8.92
2019-05-13T08:37:48.033Z,8.93
2019-05-13T08:39:02.372Z,9.05
2019-05-13T08:40:14.409Z,9.09
2019-05-13T08:41:28.744Z,9.34
2019-05-13T08:42:41.484Z,9.33
2019-05-13T08:43:52.311Z,9.4
2019-05-13T08:45:04.401Z,9.45
2019-05-13T08:46:17.360Z,9.58
2019-05-13T08:47:31.367Z,9.72
2019-05-13T08:48:42.850Z,9.8
2019-05-13T08:49:54.548Z,9.95
2019-05-13T08:51:11.537Z,10.03
2019-05-13T08:52:21.976Z,9.81
2019-05-13T08:53:34.130Z,9.63
2019-05-13T08:54:46.532Z,9.7
2019-05-13T08:55:57.780Z,9.64
2019-05-13T08:57:11.571Z,9.63
2019-05-13T08:58:24.019Z,9.81
2019-05-13T08:59:36.246Z,9.85
2019-05-13T09:00:47.516Z,10
2019-05-13T09:02:05.612Z,10.15
2019-05-13T09:03:17.028Z,10.1
2019-05-13T09:04:31.279Z,10.05
2019-05-13T09:05:43.789Z,9.85
2019-05-13T09:06:54.924Z,9.85
2019-05-13T09:08:07.286Z,9.91
2019-05-13T09:09:19.212Z,10.05
2019-05-13T09:10:31.823Z,9.97
2019-05-13T09:11:44.525Z,9.76
2019-05-13T09:12:57.130Z,9.82
2019-05-13T09:14:11.234Z,9.99
2019-05-13T09:15:22.389Z,9.95
2019-05-13T09:16:34.426Z,10.06
2019-05-13T09:17:47.372Z,10.18
2019-05-13T09:19:03.286Z,10.17
2019-05-13T09:20:14.091Z,9.88
2019-05-13T09:21:24.938Z,9.84
2019-05-13T09:22:37.092Z,9.85
2019-05-13T09:23:51.286Z,9.77
2019-05-13T09:25:02.056Z,9.64
2019-05-13T09:26:14.446Z,9.62
2019-05-13T09:27:27.151Z,9.62
2019-05-13T09:28:41.464Z,9.39
2019-05-13T09:29:54.197Z,9.58
2019-05-13T09:31:06.820Z,9.52
2019-05-13T09:32:17.929Z,9.59
2019-05-13T09:33:29.196Z,9.55
2019-05-13T09:34:42.152Z,9.52
2019-05-13T09:37:54.066Z,9.66
2019-05-13T09:39:06.814Z,9.73
2019-05-13T09:40:17.721Z,9.8
2019-05-13T09:41:31.918Z,9.8
2019-05-13T09:44:55.075Z,9.9
2019-05-13T09:46:07.500Z,9.95
2019-05-13T09:47:21.645Z,9.95
2019-05-13T09:48:37.545Z,10.03
2019-05-13T09:49:49.978Z,10.03
2019-05-13T09:51:04.780Z,10.15
2019-05-13T09:52:17.496Z,10.28
2019-05-13T09:53:32.210Z,10.42
2019-05-13T09:54:45.230Z,10.59
2019-05-13T09:55:57.459Z,10.76
2019-05-13T09:57:11.892Z,10.86
2019-05-13T09:58:24.630Z,10.97
2019-05-13T09:59:38.535Z,11.15
2019-05-13T10:00:52.429Z,11.2
2019-05-13T10:02:05.728Z,11.25
2019-05-13T10:03:18.890Z,11.53
2019-05-13T10:04:38.446Z,11.73
2019-05-13T10:05:54.165Z,11.91
2019-05-13T10:07:06.971Z,12.08
2019-05-13T10:08:21.924Z,12.3
2019-05-13T10:09:34.910Z,12.44
2019-05-13T10:10:47.227Z,12.47
2019-05-13T10:11:58.122Z,12.48
2019-05-13T10:15:12.536Z,12.32
2019-05-13T10:16:24.537Z,12.26
2019-05-13T10:17:36.610Z,12.4
2019-05-13T10:18:51.796Z,12.5
2019-05-13T10:20:02.272Z,12.63
2019-05-13T10:21:12.272Z,12.7
2019-05-13T10:22:24.392Z,12.84
2019-05-13T10:23:38.042Z,12.86
2019-05-13T10:24:51.350Z,12.88
2019-05-13T10:26:03.012Z,12.86
2019-05-13T10:27:18.767Z,12.88
2019-05-13T10:28:31.912Z,12.93
2019-05-13T10:29:45.153Z,13.02
2019-05-13T10:30:58.623Z,12.94
2019-05-13T10:32:10.014Z,12.87
2019-05-13T10:33:22.091Z,13.05
2019-05-13T10:34:34.648Z,13.09
2019-05-13T10:35:47.625Z,13.12
2019-05-13T10:37:02.054Z,13.17
2019-05-13T10:38:15.774Z,13.2
2019-05-13T10:39:28.863Z,13.31
2019-05-13T10:40:38.590Z,13.26
2019-05-13T10:41:52.250Z,13.33
2019-05-13T10:43:04.378Z,13.26
2019-05-13T10:44:35.127Z,13.33
2019-05-13T10:45:47.613Z,13.31
2019-05-13T10:47:02.453Z,13.27
2019-05-13T10:48:17.636Z,13.31
2019-05-13T10:49:32.727Z,13.13
2019-05-13T10:50:44.378Z,12.58
2019-05-13T10:51:57.385Z,12.53
2019-05-13T10:53:08.448Z,12.66
2019-05-13T10:54:21.674Z,12.81
2019-05-13T10:55:34.595Z,12.95
2019-05-13T10:56:47.710Z,13.11
2019-05-13T10:58:07.309Z,13.33
2019-05-13T10:59:22.101Z,13.39
2019-05-13T11:00:34.524Z,13.09
2019-05-13T11:01:47.553Z,13.09
2019-05-13T11:02:57.507Z,13.26
2019-05-13T11:04:12.990Z,13.45
2019-05-13T11:05:25.361Z,13.62
2019-05-13T11:06:38.541Z,13.71
2019-05-13T11:07:51.667Z,13.87
2019-05-13T11:09:04.567Z,13.97
2019-05-13T11:10:15.846Z,14.12
2019-05-13T11:11:27.301Z,14.31
2019-05-13T11:12:41.825Z,14.36
2019-05-13T11:14:15.626Z,14.61
2019-05-13T11:15:27.377Z,14.85
2019-05-13T11:16:54.564Z,14.89
2019-05-13T11:18:11.646Z,14.94
2019-05-13T11:19:39.606Z,15.05
2019-05-13T11:20:49.566Z,15.17
2019-05-13T11:22:02.425Z,15.18
2019-05-13T11:23:14.988Z,15.19
2019-05-13T11:24:28.334Z,15.29
2019-05-13T11:25:41.564Z,15.33
2019-05-13T11:26:52.958Z,15.23
2019-05-13T11:28:04.181Z,15.43
2019-05-13T11:29:16.788Z,15.45
2019-05-13T11:30:28.319Z,15.8
2019-05-13T11:31:42.454Z,16.37
2019-05-13T11:32:54.208Z,16.84
2019-05-13T11:34:06.528Z,17.32
2019-05-13T11:35:17.871Z,17.8
2019-05-13T11:36:33.236Z,17.97
2019-05-13T11:37:49.022Z,18.28
2019-05-13T11:39:02.402Z,18.51
2019-05-13T11:40:14.464Z,18.91
2019-05-13T11:41:27.565Z,19.23
2019-05-13T11:42:42.144Z,19.56
2019-05-13T11:44:19.321Z,19.92
2019-05-13T11:45:31.518Z,20.14
2019-05-13T11:46:45.040Z,20.33
2019-05-13T11:47:58.159Z,20.3
2019-05-13T11:49:11.742Z,20.26
2019-05-13T11:50:24.956Z,20.56
2019-05-13T11:53:41.647Z,21.01
2019-05-13T11:54:53.700Z,21.1
2019-05-13T11:56:06.057Z,21.05
2019-05-13T11:57:17.690Z,20.8
2019-05-13T11:58:28.105Z,20.58
2019-05-13T11:59:42.898Z,20.11
2019-05-13T12:00:55.778Z,19.05
2019-05-13T12:02:13.162Z,18.06
2019-05-13T12:03:25.740Z,18.31
2019-05-13T12:04:42.988Z,18.79
2019-05-13T12:05:56.420Z,19.35
2019-05-13T12:07:12.922Z,20.1
2019-05-13T12:08:25.291Z,20.7
2019-05-13T12:09:38.923Z,21.53
2019-05-13T12:10:51.120Z,22
2019-05-13T12:12:05.612Z,22.46
2019-05-13T12:13:18.842Z,21.14
2019-05-13T12:15:48.878Z,20.68
2019-05-13T12:17:04.681Z,20.36
2019-05-13T12:18:17.352Z,19.77
2019-05-13T12:19:31.106Z,20.58
2019-05-13T12:20:42.638Z,21.01
2019-05-13T12:21:56.457Z,21.41
2019-05-13T12:23:08.459Z,21.04
2019-05-13T12:24:22.630Z,19.85
2019-05-13T12:25:35.979Z,19.04
2019-05-13T12:26:52.739Z,18.48
2019-05-13T12:28:05.832Z,18.19
2019-05-13T12:29:23.663Z,18.28
2019-05-13T12:30:39.279Z,18
2019-05-13T12:31:54.968Z,17.82
2019-05-13T12:33:08.465Z,18.33
2019-05-13T12:34:22.728Z,19.19
2019-05-13T12:35:35.272Z,19.49
2019-05-13T12:36:48.299Z,19.74
2019-05-13T12:37:58.363Z,19.92
2019-05-13T12:39:08.449Z,20.03
2019-05-13T12:40:25.458Z,20.32
2019-05-13T12:41:39.230Z,20.98
2019-05-13T12:42:56.167Z,21.56
2019-05-13T12:44:07.104Z,21.91
2019-05-13T12:45:22.392Z,21.89
2019-05-13T12:46:32.524Z,21.88
2019-05-13T12:47:45.792Z,21.88
2019-05-13T12:48:58.457Z,21.81
2019-05-13T12:50:13.523Z,21.63
2019-05-13T12:51:25.244Z,21.77
2019-05-13T12:52:37.887Z,22.28
2019-05-13T12:53:52.632Z,22.84
2019-05-13T12:57:16.267Z,24.04
2019-05-13T12:58:29.006Z,24.71
2019-05-13T12:59:45.832Z,25.19
2019-05-13T13:00:58.265Z,25.62
2019-05-13T13:02:13.023Z,26.06
2019-05-13T13:03:25.918Z,26.31
2019-05-13T13:04:38.669Z,26.67
2019-05-13T13:09:58.950Z,27.93
2019-05-13T13:11:09.380Z,27.81
2019-05-13T13:12:23.002Z,27.37
2019-05-13T13:14:15.297Z,27.22
2019-05-13T13:15:49.162Z,26.53
2019-05-13T13:17:04.041Z,26.36
2019-05-13T13:18:19.110Z,26.16
2019-05-13T13:19:33.172Z,26.46
2019-05-13T13:20:56.407Z,26.39
2019-05-13T13:22:20.541Z,26.63
2019-05-13T13:23:39.082Z,26.73
2019-05-13T13:25:04.165Z,26.16
2019-05-13T13:26:21.656Z,25.95
2019-05-13T13:28:16.601Z,25.88
2019-05-13T13:29:33.866Z,25.71
2019-05-13T13:30:46.672Z,25.43
2019-05-13T13:32:02.867Z,25.41
2019-05-13T13:33:17.692Z,25.33
2019-05-13T13:34:33.659Z,25.15
2019-05-13T13:36:00.045Z,24.85
2019-05-13T13:37:13.387Z,24.81
2019-05-13T13:38:32.607Z,24.92
2019-05-13T13:39:45.806Z,25.16
2019-05-13T13:41:03.823Z,25.39
2019-05-13T13:42:17.535Z,25.49
2019-05-13T13:43:36.419Z,25.58
2019-05-13T13:44:53.307Z,25.83
2019-05-13T13:46:49.181Z,26.08
2019-05-13T13:48:12.878Z,26.53
2019-05-13T13:49:25.595Z,26.74
2019-05-13T13:50:44.160Z,27.11
2019-05-13T13:52:00.963Z,27.64
2019-05-13T13:53:16.281Z,27.88
2019-05-13T13:54:33.544Z,28.43
2019-05-13T13:55:46.953Z,28.72
2019-05-13T13:57:02.390Z,29.1
2019-05-13T13:58:16.526Z,29.39
2019-05-13T13:59:35.841Z,29.69
2019-05-13T14:01:42.908Z,30.21
2019-05-13T14:02:56.715Z,30.4
2019-05-13T14:04:16.255Z,30.63
2019-05-13T14:05:29.723Z,30.81
2019-05-13T14:07:07.035Z,27.53
2019-05-13T14:08:41.507Z,30.99
2019-05-13T14:09:53.689Z,31
2019-05-13T14:11:04.590Z,30.77
2019-05-13T14:12:16.994Z,30.61
2019-05-13T14:13:29.541Z,30.67
2019-05-13T14:14:41.401Z,30.27
2019-05-13T14:15:52.654Z,30.23
2019-05-13T14:17:04.910Z,30.2
2019-05-13T14:18:16.376Z,30.39
2019-05-13T14:19:34.687Z,30.4
2019-05-13T14:20:47.574Z,30.76
2019-05-13T14:22:01.676Z,31.07
2019-05-13T14:23:12.583Z,31
2019-05-13T14:24:24.081Z,30.74
2019-05-13T14:25:34.973Z,30.76
2019-05-13T14:26:48.310Z,30.99
2019-05-13T14:28:01.091Z,31.22
2019-05-13T14:29:12.293Z,31.2
2019-05-13T14:30:24.309Z,30.99
